createdAt,value
2019-05-07T00:03:26.496Z,9.01
2019-05-07T00:08:33.719Z,9.05
2019-05-07T00:13:44.118Z,9.03
2019-05-07T00:18:49.492Z,9.03
2019-05-07T00:23:56.553Z,8.99
2019-05-07T00:29:04.096Z,8.91
2019-05-07T00:34:12.475Z,8.91
2019-05-07T00:39:46.437Z,8.93
2019-05-07T00:45:17.053Z,8.91
2019-05-07T00:50:19.474Z,8.79
2019-05-07T00:55:28.453Z,8.68
2019-05-07T01:00:36.117Z,8.54
2019-05-07T01:05:43.445Z,8.45
2019-05-07T01:10:52.640Z,8.45
2019-05-07T01:15:59.396Z,8.33
2019-05-07T01:21:06.465Z,8.33
2019-05-07T01:26:13.434Z,8.25
2019-05-07T01:31:22.196Z,8.17
2019-05-07T01:36:29.439Z,8.11
2019-05-07T01:41:36.434Z,8.05
2019-05-07T01:46:43.438Z,7.98
2019-05-07T01:51:52.852Z,7.94
2019-05-07T01:56:59.388Z,7.95
2019-05-07T02:02:17.623Z,7.93
2019-05-07T02:07:37.935Z,7.94
2019-05-07T02:12:44.258Z,7.91
2019-05-07T02:17:52.583Z,7.89
2019-05-07T02:22:59.537Z,7.87
2019-05-07T02:28:06.429Z,7.79
2019-05-07T02:33:14.028Z,7.79
2019-05-07T02:38:34.253Z,7.80
2019-05-07T02:43:42.882Z,7.80
2019-05-07T02:48:55.849Z,7.78
2019-05-07T02:54:08.356Z,7.81
2019-05-07T02:59:15.458Z,7.77
2019-05-07T03:04:25.138Z,7.71
2019-05-07T03:09:32.683Z,7.72
2019-05-07T03:14:39.058Z,7.74
2019-05-07T03:19:47.698Z,7.75
2019-05-07T03:25:03.267Z,7.76
2019-05-07T03:30:26.607Z,7.80
2019-05-07T03:35:37.912Z,7.76
2019-05-07T03:40:45.540Z,7.73
2019-05-07T03:46:04.741Z,7.75
2019-05-07T03:51:13.198Z,7.78
2019-05-07T03:56:23.384Z,7.82
2019-05-07T04:01:29.385Z,7.88
2019-05-07T04:06:36.440Z,7.91
2019-05-07T04:11:43.517Z,7.90
2019-05-07T04:16:53.170Z,7.96
2019-05-07T04:21:58.297Z,7.96
2019-05-07T04:27:15.257Z,8.05
2019-05-07T04:32:25.426Z,8.10
2019-05-07T04:37:33.128Z,8.11
2019-05-07T04:42:42.772Z,8.14
2019-05-07T04:47:49.433Z,8.23
2019-05-07T04:52:56.433Z,8.36
2019-05-07T04:58:03.425Z,8.44
2019-05-07T05:03:23.820Z,8.47
2019-05-07T05:08:32.543Z,8.52
2019-05-07T05:13:38.775Z,8.56
2019-05-07T05:18:45.432Z,8.61
2019-05-07T05:24:14.245Z,8.77
2019-05-07T05:29:22.536Z,8.91
2019-05-07T05:34:28.651Z,9.04
2019-05-07T05:39:35.464Z,9.20
2019-05-07T05:44:42.439Z,9.20
2019-05-07T05:49:48.281Z,9.32
2019-05-07T05:55:11.997Z,9.38
2019-05-07T06:00:38.101Z,9.12
2019-05-07T06:05:55.260Z,9.00
2019-05-07T06:11:11.883Z,8.95
2019-05-07T06:16:22.241Z,8.89
2019-05-07T06:21:47.618Z,8.94
2019-05-07T06:26:54.571Z,8.82
2019-05-07T06:32:04.253Z,8.80
2019-05-07T06:37:12.412Z,9.17
2019-05-07T06:42:44.100Z,9.71
2019-05-07T06:47:52.028Z,10.06
2019-05-07T06:52:59.432Z,10.03
2019-05-07T06:58:08.249Z,10.18
2019-05-07T07:03:32.824Z,10.30
2019-05-07T07:08:48.565Z,9.94
2019-05-07T07:13:55.437Z,9.96
2019-05-07T07:19:03.316Z,10.37
2019-05-07T07:24:12.561Z,10.50
2019-05-07T07:29:23.269Z,10.50
2019-05-07T07:34:34.258Z,10.60
2019-05-07T07:39:40.284Z,10.66
2019-05-07T07:50:12.962Z,10.92
2019-05-07T07:55:22.427Z,10.72
2019-05-07T08:00:46.049Z,10.82
2019-05-07T08:05:53.256Z,11.15
2019-05-07T08:10:59.312Z,11.49
2019-05-07T08:16:06.459Z,11.55
2019-05-07T08:21:13.692Z,11.47
2019-05-07T08:26:21.762Z,11.30
2019-05-07T08:31:57.101Z,11.62
2019-05-07T08:37:04.431Z,11.88
2019-05-07T08:42:12.321Z,11.70
2019-05-07T08:47:24.466Z,11.90
2019-05-07T08:52:32.552Z,12.19
2019-05-07T08:57:39.435Z,12.29
2019-05-07T09:02:46.435Z,12.82
2019-05-07T09:07:53.570Z,13.24
2019-05-07T09:13:02.587Z,13.62
2019-05-07T09:18:08.309Z,13.51
2019-05-07T09:23:15.471Z,13.12
2019-05-07T09:28:23.237Z,13.16
2019-05-07T09:33:34.919Z,13.10
2019-05-07T09:38:43.053Z,14.03
2019-05-07T09:43:51.860Z,14.26
2019-05-07T09:48:59.414Z,14.54
2019-05-07T09:54:07.716Z,14.45
2019-05-07T09:59:14.656Z,14.03
2019-05-07T10:04:22.391Z,13.83
2019-05-07T10:09:29.450Z,13.83
2019-05-07T10:14:36.579Z,14.54
2019-05-07T10:19:45.448Z,15.64
2019-05-07T10:24:52.575Z,15.86
2019-05-07T10:30:02.442Z,15.31
2019-05-07T10:35:12.557Z,15.31
2019-05-07T10:40:22.267Z,14.76
2019-05-07T10:45:47.493Z,14.18
2019-05-07T10:50:55.660Z,13.98
2019-05-07T10:56:02.814Z,15.48
2019-05-07T11:01:08.863Z,15.48
2019-05-07T11:06:16.413Z,15.61
2019-05-07T11:11:22.294Z,14.90
2019-05-07T11:16:33.651Z,14.90
2019-05-07T11:21:41.876Z,15.65
2019-05-07T11:26:47.980Z,15.65
2019-05-07T11:31:54.760Z,15.36
2019-05-07T11:37:02.438Z,16.00
2019-05-07T11:42:18.589Z,16.92
2019-05-07T11:47:31.889Z,16.57
2019-05-07T11:52:42.582Z,16.57
2019-05-07T11:57:51.862Z,15.93
2019-05-07T12:02:58.596Z,15.93
2019-05-07T12:08:05.580Z,15.11
2019-05-07T12:13:12.926Z,16.13
2019-05-07T12:18:22.818Z,16.13
2019-05-07T12:23:29.677Z,17.71
2019-05-07T12:28:36.574Z,19.35
2019-05-07T12:34:02.547Z,19.78
2019-05-07T12:39:12.758Z,20.43
2019-05-07T12:44:19.739Z,20.43
2019-05-07T12:49:26.572Z,21.47
2019-05-07T12:54:46.050Z,22.15
2019-05-07T12:59:53.225Z,22.15
2019-05-07T13:05:02.707Z,21.86
2019-05-07T13:10:10.610Z,21.79
2019-05-07T13:15:24.998Z,21.43
2019-05-07T13:20:25.513Z,21.43
2019-05-07T13:25:32.535Z,21.23
2019-05-07T13:30:43.633Z,21.71
2019-05-07T13:35:49.262Z,21.71
2019-05-07T13:41:06.584Z,21.07
2019-05-07T13:46:14.348Z,20.64
2019-05-07T13:51:21.733Z,19.87
2019-05-07T13:56:27.633Z,19.05
2019-05-07T14:01:59.618Z,19.02
2019-05-07T14:07:05.501Z,19.15
2019-05-07T14:12:12.568Z,18.94
2019-05-07T14:17:21.765Z,19.82
2019-05-07T14:22:28.452Z,19.82
2019-05-07T14:27:36.441Z,20.62
2019-05-07T14:32:52.589Z,21.55
2019-05-07T14:38:14.605Z,21.73
2019-05-07T14:43:35.127Z,20.51
2019-05-07T14:48:43.897Z,20.51
2019-05-07T14:53:51.100Z,19.31
2019-05-07T14:58:58.562Z,18.35
2019-05-07T15:04:05.630Z,17.66
2019-05-07T15:09:12.546Z,17.21
2019-05-07T15:14:19.451Z,17.12
2019-05-07T15:19:26.440Z,17.12
2019-05-07T15:24:33.566Z,17.15
2019-05-07T15:29:43.458Z,16.90
2019-05-07T15:34:49.431Z,16.90
2019-05-07T15:39:56.447Z,17.37
2019-05-07T15:45:03.648Z,17.54
2019-05-07T15:50:12.458Z,18.34
2019-05-07T15:55:19.572Z,18.80
2019-05-07T16:00:28.739Z,18.69
2019-05-07T16:05:35.665Z,18.70
2019-05-07T16:10:42.821Z,19.32
2019-05-07T16:15:50.264Z,19.32
2019-05-07T16:20:56.646Z,20.51
2019-05-07T16:26:05.280Z,21.42
2019-05-07T16:31:11.286Z,21.42
2019-05-07T16:36:18.420Z,22.47
2019-05-07T16:41:25.425Z,22.59
2019-05-07T16:46:32.441Z,21.76
2019-05-07T16:51:41.905Z,21.07
2019-05-07T16:57:06.257Z,21.41
2019-05-07T17:02:17.475Z,21.50
2019-05-07T17:07:24.785Z,20.79
2019-05-07T17:12:32.409Z,19.52
2019-05-07T17:17:39.587Z,17.91
2019-05-07T17:22:46.642Z,17.60
2019-05-07T17:27:53.563Z,17.74
2019-05-07T17:33:01.945Z,17.74
2019-05-07T17:38:10.626Z,16.91
2019-05-07T17:43:18.597Z,16.91
2019-05-07T17:48:25.468Z,15.75
2019-05-07T17:53:37.685Z,15.75
2019-05-07T17:58:46.397Z,15.43
2019-05-07T18:03:54.469Z,15.14
2019-05-07T18:09:02.883Z,14.97
2019-05-07T18:14:11.588Z,14.76
2019-05-07T18:19:18.605Z,14.33
2019-05-07T18:25:21.622Z,14.25
2019-05-07T18:30:28.561Z,14.11
2019-05-07T18:35:35.589Z,13.66
2019-05-07T18:40:43.411Z,13.66
2019-05-07T18:45:51.732Z,13.51
2019-05-07T18:50:58.639Z,13.31
2019-05-07T18:56:04.524Z,12.90
2019-05-07T19:01:13.710Z,12.90
2019-05-07T19:06:22.353Z,12.70
2019-05-07T19:11:29.449Z,12.47
2019-05-07T19:16:35.319Z,12.27
2019-05-07T19:21:42.472Z,11.88
2019-05-07T19:26:49.463Z,11.88
2019-05-07T19:31:56.458Z,11.69
2019-05-07T19:37:03.573Z,11.57
2019-05-07T19:42:12.114Z,11.25
2019-05-07T19:47:18.317Z,11.25
2019-05-07T19:52:25.443Z,11.10
2019-05-07T19:57:37.369Z,10.97
2019-05-07T20:02:47.267Z,10.87
2019-05-07T20:07:58.642Z,10.76
2019-05-07T20:13:03.572Z,10.61
2019-05-07T20:18:12.416Z,10.48
2019-05-07T20:23:19.576Z,10.39
2019-05-07T20:28:26.484Z,10.18
2019-05-07T20:33:33.458Z,10.18
2019-05-07T20:38:42.546Z,10.01
2019-05-07T20:43:52.338Z,9.87
2019-05-07T20:49:02.513Z,9.75
2019-05-07T20:54:14.650Z,9.50
2019-05-07T20:59:22.017Z,9.41
2019-05-07T21:04:29.421Z,9.41
2019-05-07T21:12:53.599Z,9.13
2019-05-07T21:18:01.540Z,9.05
2019-05-07T21:23:12.208Z,9.03
2019-05-07T21:28:19.450Z,9.03
2019-05-07T21:33:26.453Z,9.07
2019-05-07T21:38:33.478Z,9.05
2019-05-07T21:43:43.073Z,8.93
2019-05-07T21:48:51.782Z,8.81
2019-05-07T21:54:23.754Z,8.68
2019-05-07T21:59:35.463Z,8.56
2019-05-07T22:08:15.290Z,8.36
2019-05-07T22:13:22.440Z,8.27
2019-05-07T22:18:32.013Z,8.18
2019-05-07T22:23:38.431Z,8.10
2019-05-07T22:28:45.491Z,8.01
2019-05-07T22:34:04.267Z,7.92
2019-05-07T22:39:12.622Z,7.87
2019-05-07T22:44:25.440Z,7.81
2019-05-07T22:49:30.445Z,7.75
2019-05-07T22:54:37.475Z,7.68
2019-05-07T22:59:44.509Z,7.63
2019-05-07T23:04:52.117Z,7.54
2019-05-07T23:09:59.451Z,7.39
2019-05-07T23:15:07.969Z,7.24
2019-05-07T23:20:15.243Z,7.13
2019-05-07T23:25:24.487Z,7.03
2019-05-07T23:30:33.076Z,6.91
2019-05-07T23:35:42.126Z,6.83
2019-05-07T23:41:07.738Z,6.72
2019-05-07T23:46:15.660Z,6.62
2019-05-07T23:51:22.435Z,6.41
2019-05-07T23:56:29.592Z,6.41
